CPY8 weather

Port Carling/Butterfly Lake Seaplane Base
Ontario, Canada

Public forecast

Using degrees Celsius for public forecast. Weather courtesy of forecast.io.

Closest aviation weather report (METAR) to Port Carling/Butterfly Lake Seaplane Base

Closest report is Muskoka Airport, 15.6 nm (28.9 km) ESE. Retrieved 2019/11/17 18:00 UTC (53 minutes ago):

CYQA 171800Z AUTO 12006G15KT 9SM CLR 00/M10 A3013 RMK SLP223

Closest aviation forecast (TAF) to Port Carling/Butterfly Lake Seaplane Base

Closest forecast is Muskoka Airport, 15.6 nm (28.9 km) ESE. Retrieved 2019/11/17 20:00 UTC (0 seconds ago):

TAF CYQA 171938Z 1720/1803 12010KT P6SM SKC RMK FCST BASED ON AUTO OBS NXT FCST WILL BE ISSUED AT 181245Z